Time;durP1;ratioP1;P1;durP2;ratioP2;P2;SDS_P1;SDS_P2;PMS_P1;PMS_P2;Temp;Humidity;BMP_temperature;BMP_pressure;BME280_temperature;BME280_humidity;BME280_pressure;Samples;Min_cycle;Max_cycle;Signal;HPM_P1;HPM_P2
2023/10/27 00:00:36;;;;;;;4.25;1.60;;;;;;;;;;4958482;28;20070;-71
2023/10/27 00:03:01;;;;;;;2.78;1.40;;;;;;;;;;4960561;28;20039;-71
2023/10/27 00:05:26;;;;;;;4.78;1.17;;;;;;;;;;4959246;28;20088;-70
2023/10/27 00:07:52;;;;;;;5.40;1.50;;;;;;;;;;4959252;28;20070;-72
2023/10/27 00:10:17;;;;;;;3.22;1.23;;;;;;;;;;4959810;28;20054;-72
2023/10/27 00:12:43;;;;;;;3.28;1.10;;;;;;;;;;4958635;28;20053;-73
2023/10/27 00:15:09;;;;;;;3.92;1.10;;;;;;;;;;4959285;28;20073;-69
2023/10/27 00:17:35;;;;;;;2.28;1.00;;;;;;;;;;4958852;28;20059;-72
2023/10/27 00:20:02;;;;;;;3.03;1.20;;;;;;;;;;4959682;28;20105;-71
2023/10/27 00:22:27;;;;;;;7.97;1.50;;;;;;;;;;4959596;28;20050;-72
2023/10/27 00:24:53;;;;;;;1.15;0.95;;;;;;;;;;4942962;28;20496;-72
2023/10/27 00:27:20;;;;;;;3.30;1.00;;;;;;;;;;4958990;28;20914;-71
2023/10/27 00:29:46;;;;;;;5.85;1.45;;;;;;;;;;4958935;28;20137;-70
2023/10/27 00:32:11;;;;;;;4.35;1.50;;;;;;;;;;4958817;28;20137;-72
2023/10/27 00:34:37;;;;;;;5.28;1.35;;;;;;;;;;4959270;28;20057;-70
2023/10/27 00:37:03;;;;;;;3.22;1.27;;;;;;;;;;4958411;28;20050;-69
2023/10/27 00:39:28;;;;;;;3.50;1.20;;;;;;;;;;4960099;28;20523;-72
2023/10/27 00:41:54;;;;;;;3.40;1.60;;;;;;;;;;4948283;28;20049;-73
2023/10/27 00:44:19;;;;;;;1.23;1.05;;;;;;;;;;4957945;28;20046;-72
2023/10/27 00:46:45;;;;;;;4.53;1.10;;;;;;;;;;4958711;28;20150;-72
2023/10/27 00:49:11;;;;;;;4.60;1.20;;;;;;;;;;4958581;28;20129;-70
2023/10/27 00:51:38;;;;;;;4.13;0.90;;;;;;;;;;4958357;28;20070;-71
2023/10/27 00:54:08;;;;;;;4.13;1.30;;;;;;;;;;4957814;28;20042;-71
2023/10/27 00:56:35;;;;;;;3.80;1.17;;;;;;;;;;4951020;28;20652;-71
2023/10/27 00:59:02;;;;;;;4.40;1.45;;;;;;;;;;4958343;28;20518;-71
2023/10/27 01:01:28;;;;;;;1.83;1.20;;;;;;;;;;4959229;28;20051;-72
2023/10/27 01:03:55;;;;;;;4.35;0.93;;;;;;;;;;4959281;28;20034;-70
2023/10/27 01:06:23;;;;;;;4.55;1.10;;;;;;;;;;4957903;28;20203;-73
2023/10/27 01:08:48;;;;;;;4.57;1.08;;;;;;;;;;4958339;28;20046;-70
2023/10/27 01:11:16;;;;;;;3.25;1.08;;;;;;;;;;4946162;28;20564;-73
2023/10/27 01:13:41;;;;;;;3.13;0.90;;;;;;;;;;4958326;28;20054;-73
2023/10/27 01:16:07;;;;;;;1.88;1.00;;;;;;;;;;4958698;28;20066;-72
2023/10/27 01:18:32;;;;;;;6.80;1.00;;;;;;;;;;4941403;28;20110;-73
2023/10/27 01:20:58;;;;;;;4.13;1.45;;;;;;;;;;4957940;28;20047;-72
2023/10/27 01:23:24;;;;;;;3.20;1.35;;;;;;;;;;4947263;28;20082;-73
2023/10/27 01:25:50;;;;;;;2.15;1.25;;;;;;;;;;4953541;28;20046;-71
2023/10/27 01:28:15;;;;;;;6.88;1.33;;;;;;;;;;4974328;28;20062;-71
2023/10/27 01:30:40;;;;;;;6.70;1.40;;;;;;;;;;4953134;28;20050;-73
2023/10/27 01:33:06;;;;;;;5.55;1.52;;;;;;;;;;4957480;28;20047;-72
2023/10/27 01:35:31;;;;;;;4.75;1.20;;;;;;;;;;4949106;28;21220;-74
2023/10/27 01:37:57;;;;;;;2.80;1.83;;;;;;;;;;4957748;28;20046;-74
2023/10/27 01:40:22;;;;;;;2.10;1.13;;;;;;;;;;4957831;28;20046;-72
2023/10/27 01:42:48;;;;;;;2.35;1.20;;;;;;;;;;4959182;28;20647;-73
2023/10/27 01:45:13;;;;;;;9.05;1.73;;;;;;;;;;4961999;28;20676;-71
2023/10/27 01:47:39;;;;;;;3.55;1.88;;;;;;;;;;4961861;28;20054;-74
2023/10/27 01:50:06;;;;;;;10.48;1.80;;;;;;;;;;4961223;28;20127;-73
2023/10/27 01:52:31;;;;;;;3.15;1.70;;;;;;;;;;4945261;28;20054;-74
2023/10/27 01:54:57;;;;;;;3.85;1.70;;;;;;;;;;4961308;28;20101;-73
2023/10/27 01:57:23;;;;;;;2.38;1.50;;;;;;;;;;4961441;28;20070;-73
2023/10/27 01:59:49;;;;;;;4.22;1.75;;;;;;;;;;4945460;28;20075;-73
2023/10/27 02:02:15;;;;;;;5.65;1.55;;;;;;;;;;4944528;28;20423;-72
2023/10/27 02:04:41;;;;;;;3.38;1.80;;;;;;;;;;4944858;28;20043;-70
2023/10/27 02:07:07;;;;;;;2.45;1.67;;;;;;;;;;4945833;28;20050;-73
2023/10/27 02:09:32;;;;;;;2.40;1.88;;;;;;;;;;4945514;28;21116;-73
2023/10/27 02:11:58;;;;;;;2.15;1.60;;;;;;;;;;4961008;28;20499;-74
2023/10/27 02:14:25;;;;;;;4.10;1.60;;;;;;;;;;4962850;28;20058;-72
2023/10/27 02:16:51;;;;;;;5.10;1.88;;;;;;;;;;4959671;28;20046;-74
2023/10/27 02:19:17;;;;;;;2.17;1.42;;;;;;;;;;4960442;28;20062;-71
2023/10/27 02:21:42;;;;;;;5.20;1.75;;;;;;;;;;4961461;28;20042;-73
2023/10/27 02:24:08;;;;;;;2.30;1.70;;;;;;;;;;4944706;28;20105;-71
2023/10/27 02:26:33;;;;;;;1.95;1.48;;;;;;;;;;4960640;28;20066;-70
2023/10/27 02:28:58;;;;;;;4.18;1.92;;;;;;;;;;4961445;28;20078;-73
2023/10/27 02:31:24;;;;;;;2.67;1.70;;;;;;;;;;4945432;28;20050;-71
2023/10/27 02:33:50;;;;;;;6.80;2.53;;;;;;;;;;4962455;28;20086;-73
2023/10/27 02:36:15;;;;;;;2.25;2.00;;;;;;;;;;4961448;28;20469;-73
2023/10/27 02:38:41;;;;;;;1.75;1.65;;;;;;;;;;4960212;28;20639;-71
2023/10/27 02:41:10;;;;;;;2.75;1.85;;;;;;;;;;4960744;28;20043;-73
2023/10/27 02:43:37;;;;;;;4.25;1.67;;;;;;;;;;4945008;28;20050;-72
2023/10/27 02:46:04;;;;;;;1.60;1.50;;;;;;;;;;4960200;28;20054;-74
2023/10/27 02:48:29;;;;;;;4.30;1.70;;;;;;;;;;4960022;28;20050;-72
2023/10/27 02:50:54;;;;;;;3.15;1.58;;;;;;;;;;4960566;28;20195;-73
2023/10/27 02:53:20;;;;;;;3.05;1.70;;;;;;;;;;4961964;28;20451;-71
2023/10/27 02:55:45;;;;;;;2.60;1.83;;;;;;;;;;4960207;28;20508;-73
2023/10/27 02:58:11;;;;;;;2.03;1.85;;;;;;;;;;4961149;28;20696;-72
2023/10/27 03:00:43;;;;;;;3.40;1.63;;;;;;;;;;4961090;28;20412;-71
2023/10/27 03:03:09;;;;;;;2.58;1.88;;;;;;;;;;4960621;28;20190;-73
2023/10/27 03:05:35;;;;;;;2.53;1.73;;;;;;;;;;4960675;28;20046;-73
2023/10/27 03:08:01;;;;;;;1.65;1.50;;;;;;;;;;4943936;28;20042;-73
2023/10/27 03:10:26;;;;;;;2.22;1.30;;;;;;;;;;4958220;28;20054;-73
2023/10/27 03:12:52;;;;;;;1.30;1.20;;;;;;;;;;4960431;28;20039;-72
2023/10/27 03:15:18;;;;;;;5.03;1.35;;;;;;;;;;4944474;28;20055;-73
2023/10/27 03:17:43;;;;;;;1.33;1.23;;;;;;;;;;4944141;28;20059;-74
2023/10/27 03:20:09;;;;;;;1.25;1.15;;;;;;;;;;4961306;28;20179;-71
2023/10/27 03:22:35;;;;;;;1.20;0.98;;;;;;;;;;4959232;28;20078;-72
2023/10/27 03:25:01;;;;;;;1.63;1.10;;;;;;;;;;4944490;28;20047;-72
2023/10/27 03:27:26;;;;;;;1.40;1.30;;;;;;;;;;4960526;28;20050;-73
2023/10/27 03:29:52;;;;;;;1.40;1.20;;;;;;;;;;4959669;28;20445;-71
2023/10/27 03:32:18;;;;;;;7.03;1.42;;;;;;;;;;4960784;28;20641;-71
2023/10/27 03:34:45;;;;;;;1.98;1.38;;;;;;;;;;4978129;28;20543;-73
2023/10/27 03:37:12;;;;;;;2.15;1.45;;;;;;;;;;4979794;28;20499;-73
2023/10/27 03:39:39;;;;;;;2.25;1.70;;;;;;;;;;4980629;28;20050;-71
2023/10/27 03:42:05;;;;;;;2.22;1.70;;;;;;;;;;4978808;28;20555;-73
2023/10/27 03:44:35;;;;;;;2.45;1.60;;;;;;;;;;4971980;28;20484;-73
2023/10/27 03:47:01;;;;;;;3.13;1.75;;;;;;;;;;4957878;28;20053;-72
2023/10/27 03:49:27;;;;;;;4.22;1.92;;;;;;;;;;4959692;28;20051;-73
2023/10/27 03:51:53;;;;;;;1.25;1.17;;;;;;;;;;4943526;28;20562;-71
2023/10/27 03:54:19;;;;;;;2.72;1.50;;;;;;;;;;4940823;28;20051;-72
2023/10/27 03:56:44;;;;;;;2.95;1.63;;;;;;;;;;4942524;28;20157;-73
2023/10/27 03:59:10;;;;;;;1.85;1.33;;;;;;;;;;4959461;28;20046;-74
2023/10/27 04:01:37;;;;;;;1.40;1.30;;;;;;;;;;4955768;28;20088;-73
2023/10/27 04:04:03;;;;;;;2.92;1.58;;;;;;;;;;4955974;28;20050;-71
2023/10/27 04:06:28;;;;;;;1.88;1.60;;;;;;;;;;4957221;28;20053;-73
2023/10/27 04:08:54;;;;;;;1.17;1.00;;;;;;;;;;4955924;28;20050;-73
2023/10/27 04:11:19;;;;;;;2.45;1.52;;;;;;;;;;4954099;28;20061;-72
2023/10/27 04:13:45;;;;;;;3.70;1.40;;;;;;;;;;4956425;28;20046;-72
2023/10/27 04:16:10;;;;;;;1.90;1.42;;;;;;;;;;4959041;28;20573;-71
2023/10/27 04:18:36;;;;;;;5.40;1.95;;;;;;;;;;4977352;28;20081;-73
2023/10/27 04:21:03;;;;;;;2.67;1.88;;;;;;;;;;4974841;28;20133;-71
2023/10/27 04:23:28;;;;;;;2.97;1.90;;;;;;;;;;4976324;28;20050;-72
2023/10/27 04:25:53;;;;;;;3.15;1.75;;;;;;;;;;4978842;28;20050;-72
2023/10/27 04:28:21;;;;;;;4.60;2.53;;;;;;;;;;4976967;28;20046;-73
2023/10/27 04:30:46;;;;;;;3.47;1.85;;;;;;;;;;4979412;28;20053;-72
2023/10/27 04:33:12;;;;;;;4.03;2.25;;;;;;;;;;4978485;28;20046;-72
2023/10/27 04:35:37;;;;;;;5.85;2.53;;;;;;;;;;4979332;28;20575;-72
2023/10/27 04:38:03;;;;;;;3.97;2.63;;;;;;;;;;4943473;28;20057;-73
2023/10/27 04:40:30;;;;;;;3.83;2.50;;;;;;;;;;4958672;28;20042;-73
2023/10/27 04:42:58;;;;;;;4.75;2.72;;;;;;;;;;4957712;28;20507;-72
2023/10/27 04:45:24;;;;;;;5.57;3.20;;;;;;;;;;4958324;28;20042;-73
2023/10/27 04:47:50;;;;;;;5.03;2.88;;;;;;;;;;4959416;28;20049;-74
2023/10/27 04:50:17;;;;;;;3.15;2.80;;;;;;;;;;4956119;28;20047;-74
2023/10/27 04:52:43;;;;;;;3.22;2.50;;;;;;;;;;4958813;28;20050;-74
2023/10/27 04:55:08;;;;;;;4.10;2.63;;;;;;;;;;4959065;28;20105;-73
2023/10/27 04:57:35;;;;;;;6.05;3.08;;;;;;;;;;4958632;28;20818;-74
2023/10/27 05:00:01;;;;;;;5.28;2.35;;;;;;;;;;4958256;28;20042;-71
2023/10/27 05:02:26;;;;;;;5.72;2.42;;;;;;;;;;4957632;28;20050;-71
2023/10/27 05:04:52;;;;;;;2.30;2.10;;;;;;;;;;4959506;28;20056;-70
2023/10/27 05:07:17;;;;;;;4.47;2.35;;;;;;;;;;4958645;28;20055;-69
2023/10/27 05:09:43;;;;;;;3.03;1.80;;;;;;;;;;4959741;28;20043;-68
2023/10/27 05:12:08;;;;;;;2.10;1.90;;;;;;;;;;4954443;28;20227;-71
2023/10/27 05:14:34;;;;;;;2.35;2.10;;;;;;;;;;4959815;28;20145;-72
2023/10/27 05:17:00;;;;;;;4.00;1.98;;;;;;;;;;4963144;28;20053;-73
2023/10/27 05:19:25;;;;;;;4.05;2.00;;;;;;;;;;4964247;28;20150;-70
2023/10/27 05:21:51;;;;;;;3.83;2.00;;;;;;;;;;4964012;28;20055;-71
2023/10/27 05:24:16;;;;;;;2.58;2.17;;;;;;;;;;4943689;28;20107;-71
2023/10/27 05:26:42;;;;;;;2.17;1.67;;;;;;;;;;4961279;28;20130;-71
2023/10/27 05:29:07;;;;;;;1.98;1.77;;;;;;;;;;4962595;28;20051;-72
2023/10/27 05:31:34;;;;;;;2.17;1.67;;;;;;;;;;4944774;28;20050;-74
2023/10/27 05:34:00;;;;;;;1.70;1.60;;;;;;;;;;4957455;28;20622;-71
2023/10/27 05:36:26;;;;;;;3.30;1.83;;;;;;;;;;4959537;28;20066;-71
2023/10/27 05:38:51;;;;;;;2.65;1.65;;;;;;;;;;4959522;28;20423;-71
2023/10/27 05:41:17;;;;;;;3.08;2.10;;;;;;;;;;4959976;28;20054;-70
2023/10/27 05:43:42;;;;;;;1.77;1.67;;;;;;;;;;4960232;28;20042;-69
2023/10/27 05:46:08;;;;;;;2.70;1.73;;;;;;;;;;4957135;28;20072;-71
2023/10/27 05:48:33;;;;;;;2.20;2.00;;;;;;;;;;4958549;28;20054;-70
2023/10/27 05:50:59;;;;;;;4.40;2.35;;;;;;;;;;4960217;28;20046;-71
2023/10/27 05:53:25;;;;;;;2.97;2.05;;;;;;;;;;4961998;28;20439;-72
2023/10/27 05:55:51;;;;;;;2.42;2.20;;;;;;;;;;4958478;28;20047;-70
2023/10/27 05:58:16;;;;;;;4.65;3.22;;;;;;;;;;4954282;28;20051;-70
2023/10/27 06:00:42;;;;;;;5.13;3.50;;;;;;;;;;4956701;28;20137;-71
2023/10/27 06:03:07;;;;;;;5.10;2.72;;;;;;;;;;4962044;28;20066;-69
2023/10/27 06:05:32;;;;;;;4.78;2.67;;;;;;;;;;4959874;28;20045;-72
2023/10/27 06:07:58;;;;;;;6.45;3.30;;;;;;;;;;4957294;28;20062;-71
2023/10/27 06:10:23;;;;;;;3.15;2.85;;;;;;;;;;4960857;28;20508;-72
2023/10/27 06:12:49;;;;;;;7.18;3.15;;;;;;;;;;4960705;28;20102;-72
2023/10/27 06:15:14;;;;;;;4.65;3.20;;;;;;;;;;4961867;28;20042;-69
2023/10/27 06:17:40;;;;;;;3.72;2.83;;;;;;;;;;4959217;28;20050;-69
2023/10/27 06:20:06;;;;;;;2.95;2.53;;;;;;;;;;4943485;28;20141;-69
2023/10/27 06:22:31;;;;;;;3.13;2.40;;;;;;;;;;4962054;28;20132;-71
2023/10/27 06:24:57;;;;;;;3.92;2.38;;;;;;;;;;4977300;28;20097;-69
2023/10/27 06:27:23;;;;;;;2.38;2.17;;;;;;;;;;4971994;28;20344;-72
2023/10/27 06:29:48;;;;;;;3.38;2.05;;;;;;;;;;4980271;28;20057;-70
2023/10/27 06:32:14;;;;;;;2.88;2.15;;;;;;;;;;4985225;28;20046;-71
2023/10/27 06:34:40;;;;;;;2.92;2.03;;;;;;;;;;4986023;28;20127;-70
2023/10/27 06:37:06;;;;;;;3.28;2.33;;;;;;;;;;4984800;28;20161;-70
2023/10/27 06:39:32;;;;;;;2.17;1.92;;;;;;;;;;4981699;28;20396;-70
2023/10/27 06:41:58;;;;;;;2.90;2.08;;;;;;;;;;4980428;28;20515;-72
2023/10/27 06:44:25;;;;;;;3.22;2.22;;;;;;;;;;4972924;28;20049;-68
2023/10/27 06:46:51;;;;;;;4.60;2.33;;;;;;;;;;4983220;28;20047;-70
2023/10/27 06:49:16;;;;;;;2.20;2.00;;;;;;;;;;4981979;28;20058;-72
2023/10/27 06:51:41;;;;;;;2.83;2.08;;;;;;;;;;4980828;28;20046;-71
2023/10/27 06:54:07;;;;;;;3.05;1.83;;;;;;;;;;4983856;28;20058;-69
2023/10/27 06:56:32;;;;;;;2.38;2.17;;;;;;;;;;4979463;28;20051;-70
2023/10/27 06:58:58;;;;;;;3.35;2.67;;;;;;;;;;4964471;28;20105;-69
2023/10/27 07:01:23;;;;;;;5.43;2.50;;;;;;;;;;4963539;28;20154;-71
2023/10/27 07:03:50;;;;;;;3.60;2.53;;;;;;;;;;4964633;28;20104;-70
2023/10/27 07:06:15;;;;;;;5.40;2.75;;;;;;;;;;4965501;28;20378;-71
2023/10/27 07:08:45;;;;;;;3.20;2.17;;;;;;;;;;4965235;28;20046;-70
2023/10/27 07:11:11;;;;;;;4.07;2.15;;;;;;;;;;4962161;28;20492;-69
2023/10/27 07:13:36;;;;;;;2.78;2.40;;;;;;;;;;4962071;28;20054;-70
2023/10/27 07:16:02;;;;;;;2.08;1.90;;;;;;;;;;4964271;28;20035;-69
2023/10/27 07:18:28;;;;;;;5.05;2.40;;;;;;;;;;4964628;28;20056;-71
2023/10/27 07:20:54;;;;;;;3.17;2.40;;;;;;;;;;4966972;28;20161;-69
2023/10/27 07:23:19;;;;;;;2.63;2.03;;;;;;;;;;4967146;28;20117;-68
2023/10/27 07:25:45;;;;;;;2.10;1.90;;;;;;;;;;4964284;28;20046;-71
2023/10/27 07:28:11;;;;;;;2.30;2.10;;;;;;;;;;4962709;28;20088;-70
2023/10/27 07:30:37;;;;;;;1.70;1.60;;;;;;;;;;4963871;28;20556;-70
2023/10/27 07:33:03;;;;;;;4.13;1.77;;;;;;;;;;4965548;28;20142;-71
2023/10/27 07:35:30;;;;;;;1.70;1.60;;;;;;;;;;4962544;28;20543;-73
2023/10/27 07:37:56;;;;;;;2.35;1.70;;;;;;;;;;4961989;28;20533;-71
2023/10/27 07:40:21;;;;;;;1.85;1.50;;;;;;;;;;4960488;28;20062;-70
2023/10/27 07:42:47;;;;;;;2.08;1.30;;;;;;;;;;4960498;28;20043;-69
2023/10/27 07:45:12;;;;;;;1.23;1.20;;;;;;;;;;4960965;28;20217;-69
2023/10/27 07:47:37;;;;;;;2.13;1.40;;;;;;;;;;4963030;28;20051;-72
2023/10/27 07:50:05;;;;;;;1.30;1.20;;;;;;;;;;4962105;28;20050;-70
2023/10/27 07:52:32;;;;;;;1.90;1.30;;;;;;;;;;4961836;28;20062;-73
2023/10/27 07:54:58;;;;;;;1.90;1.08;;;;;;;;;;4961243;28;20527;-68
2023/10/27 07:57:24;;;;;;;1.50;1.20;;;;;;;;;;4965116;28;20073;-71
2023/10/27 07:59:49;;;;;;;2.17;1.42;;;;;;;;;;4965317;28;20729;-71
2023/10/27 08:02:15;;;;;;;2.10;1.40;;;;;;;;;;4966089;28;20564;-68
2023/10/27 08:04:40;;;;;;;1.63;1.30;;;;;;;;;;4964201;28;20142;-71
2023/10/27 08:07:06;;;;;;;2.30;1.23;;;;;;;;;;4961657;28;20049;-69
2023/10/27 08:09:31;;;;;;;1.92;1.73;;;;;;;;;;4960344;28;20534;-71
2023/10/27 08:11:57;;;;;;;4.45;1.70;;;;;;;;;;4965279;28;20047;-76
2023/10/27 08:14:23;;;;;;;1.83;1.60;;;;;;;;;;4964587;28;20445;-71
2023/10/27 08:16:49;;;;;;;3.30;1.73;;;;;;;;;;4963800;28;20089;-69
2023/10/27 08:19:14;;;;;;;2.20;1.83;;;;;;;;;;4963802;28;20420;-70
2023/10/27 08:21:41;;;;;;;1.60;1.50;;;;;;;;;;4961744;28;20051;-71
2023/10/27 08:24:07;;;;;;;1.95;1.30;;;;;;;;;;4960450;28;20042;-69
2023/10/27 08:26:32;;;;;;;3.60;1.30;;;;;;;;;;4963805;28;20206;-70
2023/10/27 08:28:58;;;;;;;1.50;1.40;;;;;;;;;;4960441;28;20057;-68
2023/10/27 08:31:24;;;;;;;1.15;1.05;;;;;;;;;;4963525;28;20078;-71
2023/10/27 08:33:49;;;;;;;1.63;1.23;;;;;;;;;;4964459;28;20554;-69
2023/10/27 08:36:15;;;;;;;1.00;1.00;;;;;;;;;;4961359;28;20054;-70
2023/10/27 08:38:41;;;;;;;1.25;0.88;;;;;;;;;;4964713;28;20109;-71
2023/10/27 08:41:07;;;;;;;0.80;0.80;;;;;;;;;;4961820;28;20050;-70
2023/10/27 08:43:34;;;;;;;3.83;0.73;;;;;;;;;;4962686;28;20046;-72
2023/10/27 08:46:03;;;;;;;0.57;0.57;;;;;;;;;;4961441;28;20627;-71
2023/10/27 08:48:30;;;;;;;4.07;0.45;;;;;;;;;;4963772;28;20571;-68
2023/10/27 08:50:57;;;;;;;0.40;0.40;;;;;;;;;;4961847;28;20177;-70
2023/10/27 08:53:23;;;;;;;0.63;0.40;;;;;;;;;;4959275;28;20116;-70
2023/10/27 08:55:49;;;;;;;0.20;0.20;;;;;;;;;;4960875;28;20535;-68
2023/10/27 08:58:14;;;;;;;0.40;0.25;;;;;;;;;;4961029;28;20051;-68
2023/10/27 09:00:40;;;;;;;0.20;0.20;;;;;;;;;;4963073;28;20051;-70
2023/10/27 09:03:18;;;;;;;1.00;0.75;;;;;;;;;;4962067;28;20047;-68
2023/10/27 09:05:44;;;;;;;0.30;0.30;;;;;;;;;;4962201;28;20046;-70
2023/10/27 09:08:10;;;;;;;0.40;0.40;;;;;;;;;;4959549;28;20279;-69
2023/10/27 09:10:37;;;;;;;0.28;0.28;;;;;;;;;;4958497;28;20082;-71
2023/10/27 09:13:04;;;;;;;0.32;0.32;;;;;;;;;;4942305;28;20415;-71
2023/10/27 09:15:46;;;;;;;0.55;0.40;;;;;;;;;;4958905;28;20078;-73
2023/10/27 09:18:13;;;;;;;0.15;0.15;;;;;;;;;;4957276;28;20071;-72
2023/10/27 09:20:52;;;;;;;0.30;0.30;;;;;;;;;;4959524;28;20046;-73
2023/10/27 09:23:19;;;;;;;0.40;0.30;;;;;;;;;;4958577;28;20089;-70
2023/10/27 09:25:46;;;;;;;0.20;0.20;;;;;;;;;;4959062;28;20496;-68
2023/10/27 09:28:12;;;;;;;0.30;0.30;;;;;;;;;;4958549;28;20046;-67
2023/10/27 09:30:42;;;;;;;0.15;0.15;;;;;;;;;;4959480;28;20141;-68
2023/10/27 09:33:22;;;;;;;1.67;0.50;;;;;;;;;;4958652;28;20055;-69
2023/10/27 09:35:53;;;;;;;0.30;0.30;;;;;;;;;;4942482;28;20554;-68
2023/10/27 09:38:20;;;;;;;0.20;0.20;;;;;;;;;;4957495;28;20051;-69
2023/10/27 09:40:46;;;;;;;0.50;0.30;;;;;;;;;;4959560;28;20500;-69
2023/10/27 09:43:17;;;;;;;0.85;0.30;;;;;;;;;;4959245;28;20097;-69
2023/10/27 09:45:54;;;;;;;0.68;0.40;;;;;;;;;;4957780;28;20043;-70
2023/10/27 09:48:27;;;;;;;0.20;0.20;;;;;;;;;;4958198;28;20053;-72
2023/10/27 09:51:04;;;;;;;1.00;0.30;;;;;;;;;;4959076;28;20042;-71
2023/10/27 09:53:30;;;;;;;3.40;0.35;;;;;;;;;;4959469;28;20117;-71
2023/10/27 09:55:57;;;;;;;0.30;0.30;;;;;;;;;;4959732;28;20523;-71
2023/10/27 09:58:25;;;;;;;0.30;0.30;;;;;;;;;;4957979;28;20043;-72
2023/10/27 10:00:51;;;;;;;0.57;0.40;;;;;;;;;;4959148;28;20038;-70
2023/10/27 10:03:17;;;;;;;3.83;0.60;;;;;;;;;;4958412;28;20412;-71
2023/10/27 10:06:14;;;;;;;0.30;0.30;;;;;;;;;;4962756;28;20050;-72
2023/10/27 10:08:40;;;;;;;0.30;0.30;;;;;;;;;;4978531;28;20069;-71
2023/10/27 10:11:14;;;;;;;0.60;0.50;;;;;;;;;;4982268;28;20046;-70
2023/10/27 10:13:39;;;;;;;1.02;0.50;;;;;;;;;;4981929;28;20077;-69
2023/10/27 10:16:06;;;;;;;0.63;0.63;;;;;;;;;;4964938;28;20096;-71
2023/10/27 10:18:39;;;;;;;1.00;0.70;;;;;;;;;;4961171;28;20081;-70
2023/10/27 10:21:06;;;;;;;5.63;3.55;;;;;;;;;;4961945;28;20059;-69
2023/10/27 10:23:37;;;;;;;1.30;1.20;;;;;;;;;;4962437;28;20318;-70
2023/10/27 10:26:04;;;;;;;0.30;0.30;;;;;;;;;;4960723;28;20046;-71
2023/10/27 10:28:33;;;;;;;1.05;0.70;;;;;;;;;;4962248;28;20042;-68
2023/10/27 10:31:11;;;;;;;1.30;0.20;;;;;;;;;;4962263;28;20061;-67
2023/10/27 10:33:40;;;;;;;0.30;0.30;;;;;;;;;;4962390;28;20595;-68
2023/10/27 10:36:12;;;;;;;1.35;0.57;;;;;;;;;;4960318;28;20054;-71
2023/10/27 10:38:38;;;;;;;3.97;0.40;;;;;;;;;;4962945;28;21012;-70
2023/10/27 10:41:04;;;;;;;0.28;0.28;;;;;;;;;;4962746;28;20137;-69
2023/10/27 10:43:33;;;;;;;2.28;0.40;;;;;;;;;;4962847;28;20039;-69
2023/10/27 10:46:13;;;;;;;4.45;0.47;;;;;;;;;;4963004;28;20166;-68
2023/10/27 10:48:44;;;;;;;0.40;0.40;;;;;;;;;;4980537;28;20125;-69
2023/10/27 10:51:14;;;;;;;0.20;0.20;;;;;;;;;;4981007;28;20411;-69
2023/10/27 10:53:41;;;;;;;0.50;0.50;;;;;;;;;;4979636;28;20104;-69
2023/10/27 10:56:07;;;;;;;0.30;0.30;;;;;;;;;;4979039;28;20054;-70
2023/10/27 10:58:34;;;;;;;0.30;0.30;;;;;;;;;;4980428;28;20042;-70
2023/10/27 11:01:01;;;;;;;0.50;0.50;;;;;;;;;;4980506;28;21107;-69
2023/10/27 11:03:34;;;;;;;0.95;0.60;;;;;;;;;;4980523;28;20119;-70
2023/10/27 11:06:02;;;;;;;0.70;0.40;;;;;;;;;;4978849;28;20951;-69
2023/10/27 11:08:34;;;;;;;0.30;0.30;;;;;;;;;;4981417;28;20050;-69
2023/10/27 11:11:13;;;;;;;;;;;;;;;;;;4982044;28;20071;-70
2023/10/27 11:13:44;;;;;;;0.85;0.43;;;;;;;;;;4981421;28;19922;-69
2023/10/27 11:16:38;;;;;;;1.35;0.28;;;;;;;;;;4978879;28;20168;-70
2023/10/27 11:19:15;;;;;;;1.55;0.40;;;;;;;;;;4980576;28;20051;-69
2023/10/27 11:21:40;;;;;;;0.20;0.20;;;;;;;;;;4979817;28;20038;-70
2023/10/27 11:24:07;;;;;;;0.52;0.30;;;;;;;;;;4980527;28;20042;-69
2023/10/27 11:26:38;;;;;;;0.50;0.30;;;;;;;;;;4979965;28;20407;-71
2023/10/27 11:29:07;;;;;;;0.95;0.30;;;;;;;;;;4980478;28;20415;-71
2023/10/27 11:31:35;;;;;;;0.65;0.57;;;;;;;;;;4971802;28;20078;-70
2023/10/27 11:34:03;;;;;;;0.22;0.22;;;;;;;;;;4978217;28;20150;-72
2023/10/27 11:36:35;;;;;;;0.60;0.35;;;;;;;;;;4975512;28;20970;-70
2023/10/27 11:39:17;;;;;;;4.03;0.40;;;;;;;;;;4977826;28;20517;-69
2023/10/27 11:42:03;;;;;;;0.55;0.40;;;;;;;;;;4978637;28;20078;-69
2023/10/27 11:44:35;;;;;;;0.30;0.30;;;;;;;;;;4976326;28;20046;-68
2023/10/27 11:47:05;;;;;;;;;;;;;;;;;;4976986;28;20077;-68
2023/10/27 11:49:32;;;;;;;0.30;0.30;;;;;;;;;;4977186;28;19921;-69
2023/10/27 11:51:58;;;;;;;2.72;0.55;;;;;;;;;;4978972;28;20053;-68
2023/10/27 11:54:25;;;;;;;1.27;0.40;;;;;;;;;;4977903;28;20046;-69
2023/10/27 11:56:51;;;;;;;0.52;0.32;;;;;;;;;;4977606;28;20160;-68
2023/10/27 11:59:17;;;;;;;0.40;0.40;;;;;;;;;;4977677;28;20050;-68
2023/10/27 12:01:43;;;;;;;1.85;0.40;;;;;;;;;;4978170;28;20562;-69
2023/10/27 12:04:10;;;;;;;4.25;0.50;;;;;;;;;;4977814;28;20089;-68
2023/10/27 12:06:38;;;;;;;0.93;0.50;;;;;;;;;;4978689;28;20092;-69
2023/10/27 12:09:04;;;;;;;3.38;0.30;;;;;;;;;;4977662;28;20058;-69
2023/10/27 12:11:29;;;;;;;0.73;0.43;;;;;;;;;;4974510;28;20050;-68
2023/10/27 12:13:55;;;;;;;0.95;0.60;;;;;;;;;;4976944;28;20488;-69
2023/10/27 12:16:22;;;;;;;0.40;0.22;;;;;;;;;;4976270;28;20149;-70
2023/10/27 12:18:48;;;;;;;1.13;0.28;;;;;;;;;;4977099;28;20054;-68
2023/10/27 12:21:14;;;;;;;0.38;0.30;;;;;;;;;;4975474;28;20042;-69
2023/10/27 12:23:39;;;;;;;4.25;0.50;;;;;;;;;;4976947;28;21308;-68
2023/10/27 12:26:04;;;;;;;3.60;0.35;;;;;;;;;;4975485;28;20046;-69
2023/10/27 12:28:30;;;;;;;1.42;0.40;;;;;;;;;;4978168;28;21004;-69
2023/10/27 12:30:59;;;;;;;1.05;0.35;;;;;;;;;;4977472;28;20054;-69
2023/10/27 12:33:25;;;;;;;0.20;0.20;;;;;;;;;;4977327;28;20069;-69
2023/10/27 12:35:51;;;;;;;0.40;0.30;;;;;;;;;;4977683;28;21040;-69
2023/10/27 12:38:18;;;;;;;0.52;0.20;;;;;;;;;;4978532;28;20065;-68
2023/10/27 12:40:44;;;;;;;0.30;0.20;;;;;;;;;;4977312;28;20155;-70
2023/10/27 12:43:13;;;;;;;1.10;0.30;;;;;;;;;;4973271;28;20064;-68
2023/10/27 12:45:39;;;;;;;2.80;0.40;;;;;;;;;;4974632;28;20042;-68
2023/10/27 12:48:06;;;;;;;2.58;0.30;;;;;;;;;;4975646;28;20534;-68
2023/10/27 12:50:32;;;;;;;0.73;0.30;;;;;;;;;;4977086;28;20117;-68
2023/10/27 12:52:58;;;;;;;0.30;0.20;;;;;;;;;;4976113;28;20702;-69
2023/10/27 12:55:25;;;;;;;1.40;0.40;;;;;;;;;;4975768;28;20046;-69
2023/10/27 12:57:57;;;;;;;0.47;0.30;;;;;;;;;;4977695;28;20074;-68
2023/10/27 13:00:27;;;;;;;0.30;0.30;;;;;;;;;;4976529;28;20065;-70
2023/10/27 13:02:53;;;;;;;2.42;0.52;;;;;;;;;;4978164;28;20409;-68
2023/10/27 13:05:19;;;;;;;1.88;0.43;;;;;;;;;;4977420;28;20101;-69
2023/10/27 13:07:45;;;;;;;0.25;0.25;;;;;;;;;;4977460;28;20050;-69
2023/10/27 13:10:11;;;;;;;0.63;0.38;;;;;;;;;;4976605;28;20093;-70
2023/10/27 13:12:39;;;;;;;0.73;0.30;;;;;;;;;;4977476;28;20428;-68
2023/10/27 13:15:09;;;;;;;1.30;0.40;;;;;;;;;;4977446;28;20058;-68
2023/10/27 13:17:37;;;;;;;0.40;0.30;;;;;;;;;;4991766;28;20042;-67
2023/10/27 13:20:03;;;;;;;1.60;0.40;;;;;;;;;;4977832;28;20046;-70
2023/10/27 13:22:29;;;;;;;0.28;0.28;;;;;;;;;;4976904;28;20141;-69
2023/10/27 13:24:55;;;;;;;0.30;0.30;;;;;;;;;;4975989;28;20157;-70
2023/10/27 13:27:21;;;;;;;1.52;0.47;;;;;;;;;;4959558;28;20050;-69
2023/10/27 13:29:47;;;;;;;2.78;0.47;;;;;;;;;;4977883;28;20046;-71
2023/10/27 13:32:13;;;;;;;0.43;0.30;;;;;;;;;;4978163;28;20125;-71
2023/10/27 13:34:38;;;;;;;1.35;0.32;;;;;;;;;;4977676;28;20046;-68
2023/10/27 13:37:04;;;;;;;0.30;0.30;;;;;;;;;;4978241;28;20432;-69
2023/10/27 13:39:34;;;;;;;0.57;0.40;;;;;;;;;;4980585;28;20130;-71
2023/10/27 13:42:01;;;;;;;0.50;0.40;;;;;;;;;;4982091;28;20047;-71
2023/10/27 13:44:28;;;;;;;0.50;0.50;;;;;;;;;;4978338;28;20054;-68
2023/10/27 13:46:53;;;;;;;0.65;0.30;;;;;;;;;;4974784;28;20137;-67
2023/10/27 13:49:19;;;;;;;0.57;0.30;;;;;;;;;;4962513;28;20496;-68
2023/10/27 13:51:45;;;;;;;0.30;0.30;;;;;;;;;;4961761;28;20062;-68
2023/10/27 13:54:11;;;;;;;0.90;0.43;;;;;;;;;;4961371;28;20105;-69
2023/10/27 13:56:38;;;;;;;0.30;0.30;;;;;;;;;;4960618;28;20794;-70
2023/10/27 13:59:04;;;;;;;0.63;0.30;;;;;;;;;;4961310;28;20062;-70
2023/10/27 14:01:34;;;;;;;1.65;0.40;;;;;;;;;;4963530;28;20076;-70
2023/10/27 14:03:59;;;;;;;0.20;0.20;;;;;;;;;;4965011;28;20050;-68
2023/10/27 14:06:25;;;;;;;1.65;0.30;;;;;;;;;;4962145;28;20054;-71
2023/10/27 14:08:51;;;;;;;0.15;0.15;;;;;;;;;;4960464;28;20057;-70
2023/10/27 14:11:17;;;;;;;1.05;0.25;;;;;;;;;;4959377;28;20055;-71
2023/10/27 14:13:46;;;;;;;0.30;0.10;;;;;;;;;;4963158;28;20046;-72
2023/10/27 14:16:12;;;;;;;0.13;0.13;;;;;;;;;;4960231;28;20058;-71
2023/10/27 14:18:39;;;;;;;0.50;0.30;;;;;;;;;;4964187;28;20141;-71
2023/10/27 14:21:05;;;;;;;0.20;0.20;;;;;;;;;;4961592;28;20058;-69
2023/10/27 14:23:31;;;;;;;0.30;0.20;;;;;;;;;;4960176;28;20046;-69
2023/10/27 14:25:56;;;;;;;0.15;0.15;;;;;;;;;;4963921;28;20050;-69
2023/10/27 14:28:22;;;;;;;0.20;0.20;;;;;;;;;;4962133;28;20405;-69
2023/10/27 14:30:47;;;;;;;0.50;0.40;;;;;;;;;;4963686;28;20050;-71
2023/10/27 14:33:13;;;;;;;0.93;0.50;;;;;;;;;;4963398;28;20966;-70
2023/10/27 14:35:39;;;;;;;0.45;0.40;;;;;;;;;;4962409;28;20413;-69
2023/10/27 14:38:05;;;;;;;1.13;0.20;;;;;;;;;;4962123;28;20138;-69
2023/10/27 14:40:31;;;;;;;0.20;0.20;;;;;;;;;;4961748;28;20155;-68